Time;durP1;ratioP1;P1;durP2;ratioP2;P2;SDS_P1;SDS_P2;PMS_P1;PMS_P2;Temp;Humidity;BMP_temperature;BMP_pressure;BME280_temperature;BME280_humidity;BME280_pressure;Samples;Min_cycle;Max_cycle;Signal;HPM_P1;HPM_P2
2023/04/07 00:01:00;;;;;;;220.83;209.73;;;17.30;91.20;;;;;;5072138;28;20180;-70
2023/04/07 00:03:27;;;;;;;226.90;215.57;;;17.30;91.40;;;;;;5064434;28;20634;-70
2023/04/07 00:05:55;;;;;;;232.07;220.17;;;17.30;91.40;;;;;;5074227;28;20183;-69
2023/04/07 00:08:22;;;;;;;233.67;222.17;;;17.40;91.60;;;;;;5074609;28;20563;-70
2023/04/07 00:10:50;;;;;;;235.40;223.80;;;17.30;91.50;;;;;;5074704;28;20342;-70
2023/04/07 00:13:17;;;;;;;237.87;225.90;;;17.30;91.60;;;;;;5074579;28;20210;-68
2023/04/07 00:15:44;;;;;;;236.23;224.63;;;17.30;91.70;;;;;;5073499;28;20183;-70
2023/04/07 00:18:11;;;;;;;234.40;222.47;;;17.30;91.60;;;;;;5071928;28;20217;-71
2023/04/07 00:20:39;;;;;;;237.90;225.97;;;17.30;91.90;;;;;;5072478;28;20210;-71
2023/04/07 00:23:06;;;;;;;235.27;223.37;;;17.30;92.10;;;;;;5074067;28;20175;-68
2023/04/07 00:25:34;;;;;;;233.60;221.77;;;17.20;92.10;;;;;;5061245;28;20244;-70
2023/04/07 00:28:01;;;;;;;244.17;231.73;;;17.20;92.20;;;;;;5069016;28;20184;-68
2023/04/07 00:30:28;;;;;;;237.00;225.17;;;17.20;92.20;;;;;;5070425;28;20188;-68
2023/04/07 00:32:56;;;;;;;233.97;222.10;;;17.00;92.10;;;;;;5070355;28;20646;-67
2023/04/07 00:35:23;;;;;;;240.23;227.97;;;16.90;92.20;;;;;;5072405;28;20190;-67
2023/04/07 00:37:51;;;;;;;253.63;240.47;;;17.00;92.70;;;;;;5074046;28;20217;-65
2023/04/07 00:40:18;;;;;;;253.50;240.53;;;17.00;92.60;;;;;;5068838;28;20579;-68
2023/04/07 00:42:45;;;;;;;260.93;247.40;;;17.00;92.70;;;;;;5073145;28;20222;-68
2023/04/07 00:45:13;;;;;;;265.63;252.10;;;17.20;93.20;;;;;;5070113;28;20202;-67
2023/04/07 00:47:40;;;;;;;265.63;252.03;;;17.30;93.20;;;;;;5064246;28;20579;-66
2023/04/07 00:50:08;;;;;;;265.93;252.20;;;17.40;93.20;;;;;;5073864;28;20264;-67
2023/04/07 00:52:36;;;;;;;265.33;251.80;;;17.50;93.20;;;;;;5060434;28;20183;-68
2023/04/07 00:55:03;;;;;;;272.90;258.83;;;17.70;93.30;;;;;;5067979;28;20622;-66
2023/04/07 00:57:31;;;;;;;272.80;258.60;;;17.80;93.00;;;;;;5072624;28;20249;-66
2023/04/07 00:59:58;;;;;;;283.30;268.67;;;17.90;93.10;;;;;;5073964;28;20272;-67
2023/04/07 01:02:56;;;;;;;280.47;266.27;;;18.10;93.10;;;;;;5073833;28;20186;-68
2023/04/07 01:05:30;;;;;;;275.07;261.27;;;18.30;92.90;;;;;;5066481;28;20267;-68
2023/04/07 01:08:38;;;;;;;262.87;249.57;;;18.30;92.90;;;;;;5073141;28;20217;-67
2023/04/07 01:11:16;;;;;;;237.57;225.60;;;18.30;92.50;;;;;;5043126;28;20192;-69
2023/04/07 01:13:51;;;;;;;205.43;194.93;;;18.40;92.70;;;;;;5075532;28;20175;-68
2023/04/07 01:16:30;;;;;;;192.10;182.40;;;18.40;91.90;;;;;;5073547;28;20187;-67
2023/04/07 01:19:35;;;;;;;180.40;170.87;;;18.40;91.90;;;;;;5074274;28;20225;-68
2023/04/07 01:22:10;;;;;;;167.40;158.70;;;18.80;91.80;;;;;;5040825;28;20191;-68
2023/04/07 01:25:17;;;;;;;122.43;116.03;;;19.20;91.20;;;;;;5090360;28;20174;-70
2023/04/07 01:28:12;;;;;;;134.60;127.70;;;19.40;88.30;;;;;;5062783;28;20211;-71
2023/04/07 01:30:42;;;;;;;73.80;69.70;;;19.80;89.30;;;;;;5072043;28;20675;-71
2023/04/07 01:33:11;;;;;;;55.17;52.20;;;19.80;87.20;;;;;;5072287;28;20220;-71
2023/04/07 01:35:40;;;;;;;39.63;37.13;;;19.80;87.60;;;;;;5072030;28;20214;-69
2023/04/07 01:38:10;;;;;;;39.10;36.80;;;19.90;87.20;;;;;;5067134;28;20253;-71
2023/04/07 01:40:38;;;;;;;27.17;25.20;;;20.00;86.90;;;;;;5071349;28;20183;-68
2023/04/07 01:43:07;;;;;;;26.53;24.90;;;19.80;86.60;;;;;;5057969;28;20641;-69
2023/04/07 01:45:36;;;;;;;26.97;25.17;;;20.00;86.90;;;;;;5071617;28;20176;-71
2023/04/07 01:48:07;;;;;;;21.00;19.50;;;20.10;87.10;;;;;;5072068;28;20176;-72
2023/04/07 01:50:35;;;;;;;20.27;18.53;;;20.20;86.60;;;;;;5070028;28;20207;-72
2023/04/07 01:53:04;;;;;;;16.87;15.50;;;20.30;87.00;;;;;;5070226;28;20534;-71
2023/04/07 01:55:32;;;;;;;19.50;18.10;;;20.30;86.80;;;;;;5070761;28;20224;-71
2023/04/07 01:58:05;;;;;;;13.97;12.57;;;20.50;86.80;;;;;;5071410;28;20584;-67
2023/04/07 02:00:35;;;;;;;8.60;7.90;;;20.50;85.80;;;;;;5069769;28;20225;-69
2023/04/07 02:03:49;;;;;;;9.13;8.37;;;20.30;85.10;;;;;;5071454;28;20646;-69
2023/04/07 02:06:22;;;;;;;12.53;11.43;;;20.40;85.40;;;;;;5058623;28;20527;-68
2023/04/07 02:08:53;;;;;;;8.70;7.63;;;20.50;85.80;;;;;;5072760;28;20223;-69
2023/04/07 02:11:25;;;;;;;6.80;4.70;;;20.70;84.80;;;;;;5067892;28;20175;-69
2023/04/07 02:13:54;;;;;;;5.60;3.00;;;20.80;84.60;;;;;;5068545;28;20700;-69
2023/04/07 02:16:24;;;;;;;11.77;6.10;;;21.10;83.20;;;;;;5057152;28;20318;-70
2023/04/07 02:18:52;;;;;;;12.73;9.87;;;21.30;82.60;;;;;;5068750;28;20194;-72
2023/04/07 02:21:20;;;;;;;5.80;2.23;;;21.70;82.40;;;;;;5066761;28;20601;-69
2023/04/07 02:23:47;;;;;;;5.87;2.00;;;21.80;80.30;;;;;;5053106;28;20180;-69
2023/04/07 02:26:15;;;;;;;3.37;1.63;;;21.70;80.10;;;;;;5072173;28;20183;-70
2023/04/07 02:28:42;;;;;;;3.83;1.73;;;21.80;80.70;;;;;;5076756;28;20194;-71
2023/04/07 02:31:12;;;;;;;6.57;2.77;;;21.80;80.00;;;;;;5068992;28;20273;-69
2023/04/07 02:33:39;;;;;;;4.67;2.47;;;22.00;79.40;;;;;;5067430;28;20190;-68
2023/04/07 02:36:07;;;;;;;2.83;2.13;;;22.30;80.30;;;;;;5063208;28;20206;-70
2023/04/07 02:38:34;;;;;;;5.40;1.37;;;22.30;77.10;;;;;;5071358;28;20269;-70
2023/04/07 02:41:01;;;;;;;6.47;1.70;;;22.20;76.60;;;;;;5070593;28;20195;-68
2023/04/07 02:43:29;;;;;;;6.37;1.40;;;22.10;76.90;;;;;;5069935;28;20237;-69
2023/04/07 02:45:56;;;;;;;6.37;1.40;;;22.00;75.60;;;;;;5072032;28;20202;-69
2023/04/07 02:48:23;;;;;;;6.37;1.90;;;22.30;75.30;;;;;;5072328;28;20581;-68
2023/04/07 02:50:51;;;;;;;3.13;1.33;;;22.60;74.80;;;;;;5075783;28;20183;-66
2023/04/07 02:53:18;;;;;;;4.57;1.30;;;22.50;72.70;;;;;;5074792;28;20185;-68
2023/04/07 02:55:46;;;;;;;4.63;1.20;;;22.40;72.60;;;;;;5068898;28;20218;-67
2023/04/07 02:58:13;;;;;;;6.70;1.50;;;22.80;72.40;;;;;;5073172;28;20676;-69
2023/04/07 03:00:40;;;;;;;2.40;1.10;;;23.10;71.10;;;;;;5075736;28;20261;-69
2023/04/07 03:03:08;;;;;;;4.00;1.37;;;23.30;71.10;;;;;;5074541;28;20642;-70
2023/04/07 03:05:35;;;;;;;3.23;1.13;;;23.20;70.30;;;;;;5074394;28;20254;-70
2023/04/07 03:08:02;;;;;;;1.63;0.80;;;23.10;70.40;;;;;;5075649;28;20729;-68
2023/04/07 03:10:30;;;;;;;2.37;1.03;;;23.20;69.40;;;;;;5074373;28;20187;-70
2023/04/07 03:12:57;;;;;;;4.87;1.27;;;23.30;68.20;;;;;;5070644;28;20209;-70
2023/04/07 03:15:25;;;;;;;1.00;0.90;;;22.90;68.80;;;;;;5063458;28;20175;-72
2023/04/07 03:17:52;;;;;;;3.83;1.00;;;22.90;68.60;;;;;;5074503;28;20183;-68
2023/04/07 03:20:20;;;;;;;2.20;0.90;;;23.10;68.90;;;;;;5074082;28;20199;-72
2023/04/07 03:22:47;;;;;;;2.17;0.80;;;23.70;66.20;;;;;;5075365;28;20249;-71
2023/04/07 03:25:15;;;;;;;3.60;1.00;;;24.10;66.50;;;;;;5073340;28;20608;-69
2023/04/07 03:27:42;;;;;;;3.13;1.37;;;24.00;65.00;;;;;;5073842;28;20187;-72
2023/04/07 03:30:10;;;;;;;3.90;0.90;;;24.30;65.00;;;;;;5071429;28;20179;-70
2023/04/07 03:32:37;;;;;;;5.00;1.70;;;24.80;64.20;;;;;;5073638;28;20187;-71
2023/04/07 03:35:05;;;;;;;4.17;1.10;;;24.50;64.00;;;;;;5073098;28;20179;-71
2023/04/07 03:37:32;;;;;;;2.80;0.90;;;24.60;63.50;;;;;;5071877;28;20592;-70
2023/04/07 03:40:00;;;;;;;3.67;1.13;;;24.30;63.50;;;;;;5073854;28;20211;-71
2023/04/07 03:42:27;;;;;;;2.67;1.20;;;24.80;63.40;;;;;;5075011;28;20171;-70
2023/04/07 03:44:54;;;;;;;3.70;0.97;;;24.90;62.50;;;;;;5072130;28;20183;-70
2023/04/07 03:47:22;;;;;;;0.73;0.60;;;24.90;60.80;;;;;;5068963;28;20186;-73
2023/04/07 03:49:49;;;;;;;3.73;1.10;;;24.80;60.90;;;;;;5073864;28;20198;-72
2023/04/07 03:52:17;;;;;;;2.30;0.80;;;25.10;62.30;;;;;;5074529;28;20194;-71
2023/04/07 03:54:44;;;;;;;1.33;0.73;;;25.30;59.40;;;;;;5071520;28;20346;-72
2023/04/07 03:57:12;;;;;;;2.30;0.67;;;25.30;59.80;;;;;;5074557;28;20183;-71
2023/04/07 03:59:39;;;;;;;1.23;0.63;;;25.50;57.90;;;;;;5072150;28;20227;-70
2023/04/07 04:02:06;;;;;;;2.80;1.03;;;25.30;59.50;;;;;;5073998;28;20238;-74
2023/04/07 04:04:33;;;;;;;3.23;0.90;;;25.50;59.00;;;;;;5073549;28;20232;-72
2023/04/07 04:07:01;;;;;;;2.77;0.80;;;26.10;59.30;;;;;;5074932;28;20179;-71
2023/04/07 04:09:28;;;;;;;2.63;0.60;;;26.00;58.90;;;;;;5074525;28;20223;-71
2023/04/07 04:11:55;;;;;;;1.93;0.60;;;26.50;57.40;;;;;;5073093;28;20262;-72
2023/04/07 04:14:23;;;;;;;3.03;0.83;;;25.90;57.00;;;;;;5071901;28;20209;-71
2023/04/07 04:16:50;;;;;;;2.67;0.60;;;25.70;57.50;;;;;;5071857;28;20266;-69
2023/04/07 04:19:17;;;;;;;2.43;0.90;;;26.10;58.10;;;;;;5065137;28;20225;-69
2023/04/07 04:21:45;;;;;;;4.43;0.77;;;26.40;55.90;;;;;;5073368;28;20183;-70
2023/04/07 04:24:12;;;;;;;4.10;0.70;;;26.40;56.20;;;;;;5073325;28;20183;-71
2023/04/07 04:26:40;;;;;;;0.67;0.50;;;26.30;55.90;;;;;;5069815;28;20668;-73
2023/04/07 04:29:07;;;;;;;0.80;0.47;;;26.10;56.30;;;;;;5069776;28;20180;-74
2023/04/07 04:31:35;;;;;;;1.23;0.60;;;26.30;55.80;;;;;;5066143;28;20241;-71
2023/04/07 04:34:02;;;;;;;1.73;0.60;;;26.20;56.40;;;;;;5066832;28;20176;-71
2023/04/07 04:36:30;;;;;;;2.13;0.80;;;26.50;55.10;;;;;;5073256;28;20186;-69
2023/04/07 04:38:57;;;;;;;1.60;0.80;;;26.90;54.70;;;;;;5062647;28;20283;-69
2023/04/07 04:41:24;;;;;;;3.03;0.63;;;27.00;54.10;;;;;;5061241;28;20179;-68
2023/04/07 04:43:52;;;;;;;0.50;0.50;;;26.70;55.20;;;;;;5072179;28;20186;-68
2023/04/07 04:46:19;;;;;;;1.87;0.60;;;26.60;54.60;;;;;;5066469;28;20596;-69
2023/04/07 04:48:46;;;;;;;1.20;0.60;;;26.40;55.40;;;;;;5063834;28;20187;-71
2023/04/07 04:51:14;;;;;;;0.70;0.47;;;27.00;54.60;;;;;;5073509;28;20202;-65
2023/04/07 04:53:41;;;;;;;2.27;0.60;;;26.80;54.40;;;;;;5071871;28;20203;-69
2023/04/07 04:56:09;;;;;;;2.23;0.90;;;26.60;54.20;;;;;;5071517;28;20237;-72
2023/04/07 04:58:39;;;;;;;1.43;0.60;;;26.80;55.10;;;;;;5073446;28;20288;-70
2023/04/07 05:01:06;;;;;;;4.20;0.63;;;26.80;54.00;;;;;;5070865;28;20646;-72
2023/04/07 05:03:34;;;;;;;0.97;0.80;;;26.40;55.30;;;;;;5072748;28;20179;-68
2023/04/07 05:06:01;;;;;;;1.77;0.50;;;26.70;55.30;;;;;;5073590;28;20654;-69
2023/04/07 05:08:28;;;;;;;1.97;0.60;;;27.00;52.90;;;;;;5073192;28;20226;-68
2023/04/07 05:10:56;;;;;;;3.77;0.60;;;26.80;54.60;;;;;;5072352;28;20175;-70
2023/04/07 05:13:24;;;;;;;1.17;0.50;;;26.40;55.00;;;;;;5073203;28;20208;-66
2023/04/07 05:15:52;;;;;;;2.73;0.90;;;26.80;54.40;;;;;;5067217;28;20520;-67
2023/04/07 05:18:19;;;;;;;4.20;1.20;;;26.60;55.30;;;;;;5065084;28;20746;-68
2023/04/07 05:20:49;;;;;;;3.80;1.10;;;27.00;55.80;;;;;;5064808;28;20642;-68
2023/04/07 05:23:16;;;;;;;6.30;1.77;;;27.80;55.30;;;;;;5058788;28;20176;-69
2023/04/07 05:25:43;;;;;;;9.67;2.07;;;28.00;54.90;;;;;;5072248;28;20262;-67
2023/04/07 05:28:11;;;;;;;3.03;1.30;;;28.30;54.00;;;;;;5071926;28;20577;-66
2023/04/07 05:30:38;;;;;;;5.17;1.80;;;27.90;55.10;;;;;;5071122;28;20179;-67
2023/04/07 05:33:05;;;;;;;4.10;1.83;;;27.80;55.20;;;;;;5072865;28;20191;-67
2023/04/07 05:35:33;;;;;;;7.33;2.07;;;28.20;54.00;;;;;;5062111;28;20716;-67
2023/04/07 05:38:00;;;;;;;4.80;1.60;;;28.20;54.40;;;;;;5058594;28;20191;-68
2023/04/07 05:40:29;;;;;;;6.03;1.80;;;28.00;55.40;;;;;;5071022;28;20179;-67
2023/04/07 05:42:57;;;;;;;7.07;1.90;;;27.90;56.00;;;;;;5072878;28;20202;-69
2023/04/07 05:45:24;;;;;;;6.07;1.67;;;28.00;55.40;;;;;;5072899;28;20186;-69
2023/04/07 05:47:51;;;;;;;6.63;1.73;;;27.30;58.20;;;;;;5071948;28;20552;-67
2023/04/07 05:50:19;;;;;;;9.50;2.70;;;27.30;58.30;;;;;;5072986;28;20175;-67
2023/04/07 05:52:46;;;;;;;7.07;2.27;;;27.60;57.40;;;;;;5072662;28;20271;-67
2023/04/07 05:55:13;;;;;;;9.27;2.13;;;27.30;58.40;;;;;;5066618;28;20241;-70
2023/04/07 05:57:41;;;;;;;6.57;1.80;;;27.30;60.20;;;;;;5075095;28;20265;-71
2023/04/07 06:00:12;;;;;;;4.10;1.53;;;27.70;58.40;;;;;;5071117;28;20222;-67
2023/04/07 06:02:39;;;;;;;9.53;2.17;;;27.80;57.20;;;;;;5067527;28;20660;-69
2023/04/07 06:05:15;;;;;;;9.90;1.70;;;27.80;58.00;;;;;;5072069;28;20194;-68
2023/04/07 06:07:43;;;;;;;7.93;2.23;;;27.40;59.30;;;;;;5072073;28;20183;-68
2023/04/07 06:10:11;;;;;;;3.03;1.23;;;27.40;58.70;;;;;;5070548;28;20202;-67
2023/04/07 06:12:38;;;;;;;7.00;1.60;;;26.60;60.80;;;;;;5071139;28;20191;-68
2023/04/07 06:15:06;;;;;;;5.47;1.80;;;25.10;66.50;;;;;;5069988;28;20273;-70
2023/04/07 06:17:33;;;;;;;14.63;2.30;;;24.60;68.40;;;;;;5070900;28;20237;-72
2023/04/07 06:20:00;;;;;;;7.67;2.03;;;24.20;69.60;;;;;;5072410;28;20218;-68
2023/04/07 06:22:28;;;;;;;9.17;2.20;;;23.90;71.20;;;;;;5073277;28;20629;-69
2023/04/07 06:24:55;;;;;;;9.33;2.40;;;23.70;72.40;;;;;;5078458;28;20198;-66
2023/04/07 06:27:23;;;;;;;7.27;2.20;;;23.70;72.40;;;;;;5077678;28;20194;-67
2023/04/07 06:29:51;;;;;;;10.07;3.40;;;23.50;72.80;;;;;;5078857;28;20244;-68
2023/04/07 06:32:20;;;;;;;6.40;3.47;;;23.40;73.50;;;;;;5078772;28;20240;-70
2023/04/07 06:34:47;;;;;;;8.47;1.93;;;23.40;73.80;;;;;;5078436;28;20194;-69
2023/04/07 06:37:15;;;;;;;4.70;2.00;;;23.40;73.30;;;;;;5079078;28;20236;-71
2023/04/07 06:39:44;;;;;;;2.73;1.43;;;23.20;70.80;;;;;;5088924;28;20224;-69
2023/04/07 06:42:11;;;;;;;3.10;1.13;;;23.20;69.60;;;;;;5078533;28;20186;-68
2023/04/07 06:44:39;;;;;;;1.70;1.10;;;23.30;67.80;;;;;;5078648;28;20183;-67
2023/04/07 06:47:09;;;;;;;1.10;1.00;;;23.40;67.50;;;;;;5079103;28;20175;-68
2023/04/07 06:49:36;;;;;;;3.80;1.20;;;23.30;66.60;;;;;;5078017;28;20245;-68
2023/04/07 06:52:04;;;;;;;1.43;0.90;;;23.40;66.40;;;;;;5078698;28;20183;-68
2023/04/07 06:54:31;;;;;;;1.87;1.20;;;23.40;66.20;;;;;;5077011;28;20182;-68
2023/04/07 06:57:01;;;;;;;8.20;1.00;;;23.40;66.50;;;;;;5078146;28;20171;-67
2023/04/07 06:59:31;;;;;;;1.80;0.97;;;23.30;66.40;;;;;;5078697;28;20203;-70
2023/04/07 07:02:02;;;;;;;1.07;0.90;;;23.30;66.80;;;;;;5078796;28;20179;-69
2023/04/07 07:04:29;;;;;;;1.30;0.90;;;23.30;66.70;;;;;;5078362;28;20179;-73
2023/04/07 07:06:56;;;;;;;1.93;1.20;;;23.30;67.00;;;;;;5078695;28;20290;-70
2023/04/07 07:09:25;;;;;;;2.40;1.27;;;23.30;67.40;;;;;;5076805;28;20254;-72
2023/04/07 07:11:52;;;;;;;2.67;1.10;;;23.30;67.70;;;;;;5077716;28;20179;-73
2023/04/07 07:14:20;;;;;;;3.77;1.53;;;23.20;69.10;;;;;;5076959;28;20183;-68
2023/04/07 07:16:47;;;;;;;4.03;1.50;;;23.20;70.60;;;;;;5081493;28;20535;-72
2023/04/07 07:19:15;;;;;;;7.27;2.23;;;23.10;72.00;;;;;;5078253;28;20264;-70
2023/04/07 07:21:42;;;;;;;5.60;1.43;;;22.90;72.90;;;;;;5078323;28;20531;-69
2023/04/07 07:24:10;;;;;;;1.00;0.90;;;22.80;73.10;;;;;;5078547;28;20179;-72
2023/04/07 07:26:37;;;;;;;3.20;1.20;;;22.80;70.50;;;;;;5078133;28;20182;-71
2023/04/07 07:29:06;;;;;;;2.10;1.03;;;22.80;69.50;;;;;;5077886;28;20190;-73
2023/04/07 07:31:33;;;;;;;1.10;0.90;;;22.80;68.50;;;;;;5077860;28;20183;-70
2023/04/07 07:34:03;;;;;;;1.30;1.00;;;22.90;68.20;;;;;;5063213;28;20178;-72
2023/04/07 07:36:31;;;;;;;2.23;1.27;;;22.90;68.70;;;;;;5073219;28;20772;-71
2023/04/07 07:38:58;;;;;;;3.57;1.60;;;22.80;69.60;;;;;;5075151;28;20199;-72
2023/04/07 07:41:26;;;;;;;6.23;1.30;;;22.80;70.60;;;;;;5074796;28;20254;-74
2023/04/07 07:43:56;;;;;;;2.10;1.13;;;22.80;70.70;;;;;;5074295;28;20183;-70
2023/04/07 07:46:26;;;;;;;2.63;1.43;;;22.80;70.50;;;;;;5071297;28;20503;-73
2023/04/07 07:48:53;;;;;;;1.60;1.17;;;22.70;69.90;;;;;;5074292;28;20209;-71
2023/04/07 07:51:21;;;;;;;3.63;1.93;;;22.70;70.80;;;;;;5074890;28;20580;-73
2023/04/07 07:53:48;;;;;;;3.50;1.70;;;22.60;71.40;;;;;;5074677;28;20261;-72
2023/04/07 07:56:15;;;;;;;2.97;1.93;;;22.40;71.80;;;;;;5073898;28;20175;-71
2023/04/07 07:58:43;;;;;;;2.83;1.03;;;22.30;72.20;;;;;;5074515;28;20203;-71
2023/04/07 08:01:10;;;;;;;4.50;1.30;;;22.30;72.70;;;;;;5071810;28;20206;-69
2023/04/07 08:03:38;;;;;;;2.33;1.40;;;22.20;73.00;;;;;;5072369;28;20696;-69
2023/04/07 08:06:08;;;;;;;4.20;1.50;;;22.10;73.60;;;;;;5074788;28;20207;-68
2023/04/07 08:08:36;;;;;;;3.00;1.47;;;22.10;74.30;;;;;;5073526;28;20227;-68
2023/04/07 08:11:03;;;;;;;1.93;1.10;;;22.00;74.70;;;;;;5074344;28;20652;-68
2023/04/07 08:13:30;;;;;;;2.03;1.40;;;22.00;74.50;;;;;;5072448;28;20618;-68
2023/04/07 08:15:58;;;;;;;3.07;1.83;;;22.00;74.50;;;;;;5074404;28;20194;-68
2023/04/07 08:18:26;;;;;;;1.77;1.60;;;22.00;74.80;;;;;;5074184;28;20211;-68
2023/04/07 08:20:56;;;;;;;3.10;2.27;;;22.00;75.10;;;;;;5072504;28;20183;-70
2023/04/07 08:23:25;;;;;;;4.00;1.90;;;22.00;75.40;;;;;;5073497;28;20218;-69
2023/04/07 08:25:52;;;;;;;3.63;1.90;;;21.90;75.90;;;;;;5073099;28;20215;-69
2023/04/07 08:28:21;;;;;;;5.50;2.27;;;21.80;76.60;;;;;;5086611;28;21890;-69
2023/04/07 08:30:49;;;;;;;10.80;8.60;;;21.80;76.70;;;;;;5071837;28;20191;-69
2023/04/07 08:33:16;;;;;;;6.13;3.30;;;21.70;76.90;;;;;;5076390;28;20179;-68
2023/04/07 08:35:43;;;;;;;5.10;4.27;;;21.60;77.00;;;;;;5074907;28;20202;-71
2023/04/07 08:38:11;;;;;;;3.97;1.50;;;21.60;77.40;;;;;;5076296;28;20211;-69
2023/04/07 08:40:38;;;;;;;5.77;4.27;;;21.60;77.00;;;;;;5073808;28;20183;-70
2023/04/07 08:43:09;;;;;;;4.20;2.17;;;21.60;77.10;;;;;;5073851;28;20548;-72
2023/04/07 08:45:41;;;;;;;2.87;1.97;;;21.60;77.00;;;;;;5069915;28;20187;-70
2023/04/07 08:48:18;;;;;;;2.07;1.57;;;21.60;76.90;;;;;;5059962;28;20179;-72
2023/04/07 08:50:51;;;;;;;3.13;1.53;;;21.60;77.00;;;;;;5073950;28;20257;-70
2023/04/07 08:53:23;;;;;;;2.80;1.50;;;21.60;76.90;;;;;;5073067;28;20190;-72
2023/04/07 08:55:51;;;;;;;6.17;1.90;;;21.60;77.00;;;;;;5072452;28;20196;-72
2023/04/07 08:58:21;;;;;;;2.27;1.87;;;21.60;77.00;;;;;;5073600;28;20215;-71
2023/04/07 09:00:50;;;;;;;4.53;2.33;;;21.70;77.20;;;;;;5073880;28;20274;-69
2023/04/07 09:03:18;;;;;;;12.00;9.17;;;21.60;77.20;;;;;;5073376;28;20206;-69
2023/04/07 09:05:46;;;;;;;3.63;2.67;;;21.60;77.20;;;;;;5073586;28;20187;-72
2023/04/07 09:08:13;;;;;;;5.73;1.83;;;21.60;77.30;;;;;;5073207;28;20211;-71
2023/04/07 09:10:41;;;;;;;3.63;1.30;;;21.60;77.30;;;;;;5070310;28;20175;-72
2023/04/07 09:13:11;;;;;;;14.50;12.23;;;21.50;77.30;;;;;;5072180;28;20197;-71
2023/04/07 09:15:40;;;;;;;3.80;2.40;;;21.60;77.40;;;;;;5067137;28;20175;-72
2023/04/07 09:18:07;;;;;;;2.80;2.00;;;21.50;77.40;;;;;;5071550;28;20653;-71
2023/04/07 09:21:13;;;;;;;2.43;1.50;;;21.50;77.00;;;;;;5073358;28;20237;-74
2023/04/07 09:23:42;;;;;;;4.20;1.50;;;21.50;77.00;;;;;;5031224;28;20589;-71
2023/04/07 09:26:26;;;;;;;1.50;1.20;;;21.40;77.00;;;;;;5030774;28;20184;-71
2023/04/07 09:28:59;;;;;;;4.83;1.40;;;21.40;77.20;;;;;;5054937;28;20186;-72
2023/04/07 09:31:52;;;;;;;4.90;1.43;;;21.30;77.30;;;;;;5069015;28;20668;-71
2023/04/07 09:34:31;;;;;;;3.77;1.40;;;21.30;77.30;;;;;;5070885;28;20179;-72
2023/04/07 09:36:59;;;;;;;2.20;1.30;;;21.30;77.50;;;;;;5062374;28;20179;-70
2023/04/07 09:39:28;;;;;;;2.43;1.40;;;21.30;77.40;;;;;;5071509;28;20210;-71
2023/04/07 09:41:56;;;;;;;2.30;1.30;;;21.30;77.40;;;;;;5072328;28;20235;-69
2023/04/07 09:44:25;;;;;;;2.73;1.60;;;21.30;77.30;;;;;;5072863;28;20543;-70
2023/04/07 09:46:57;;;;;;;1.77;1.20;;;21.30;77.30;;;;;;5073257;28;20167;-71
2023/04/07 09:49:26;;;;;;;2.57;1.10;;;21.30;77.30;;;;;;5068441;28;20575;-70
2023/04/07 09:51:58;;;;;;;1.40;1.30;;;21.30;77.30;;;;;;5072309;28;20175;-69
2023/04/07 09:54:40;;;;;;;2.37;1.30;;;21.40;77.30;;;;;;5072343;28;20191;-71
2023/04/07 09:57:12;;;;;;;5.43;1.40;;;21.40;77.20;;;;;;5071699;28;20180;-72
2023/04/07 09:59:44;;;;;;;2.17;1.40;;;21.30;77.10;;;;;;5059134;28;20281;-70
2023/04/07 10:02:12;;;;;;;3.03;1.33;;;21.30;77.20;;;;;;5070218;28;20178;-73
2023/04/07 10:04:40;;;;;;;2.20;1.10;;;21.40;77.10;;;;;;5068621;28;20195;-72
2023/04/07 10:07:07;;;;;;;2.57;1.43;;;21.40;77.00;;;;;;5072127;28;20254;-73
2023/04/07 10:09:35;;;;;;;2.53;1.20;;;21.40;76.80;;;;;;5071670;28;20753;-72
2023/04/07 10:12:03;;;;;;;3.07;1.50;;;21.30;76.80;;;;;;5070800;28;20213;-72
2023/04/07 10:14:34;;;;;;;2.20;1.30;;;21.40;77.00;;;;;;5069815;28;20661;-71
2023/04/07 10:17:03;;;;;;;1.67;1.03;;;21.40;77.00;;;;;;5072709;28;20187;-70
2023/04/07 10:19:34;;;;;;;1.20;1.03;;;21.40;76.50;;;;;;5064889;28;20264;-70
2023/04/07 10:22:14;;;;;;;2.83;1.30;;;21.50;76.10;;;;;;5070944;28;20201;-69
2023/04/07 10:24:58;;;;;;;1.50;1.17;;;21.50;76.30;;;;;;5065014;28;20223;-69
2023/04/07 10:27:50;;;;;;;2.73;1.47;;;21.50;76.40;;;;;;5066618;28;20195;-70
2023/04/07 10:30:32;;;;;;;2.20;1.20;;;21.50;76.80;;;;;;5070642;28;20657;-68
2023/04/07 10:32:59;;;;;;;6.13;1.47;;;21.50;76.40;;;;;;5071252;28;20198;-72
2023/04/07 10:35:28;;;;;;;1.80;1.23;;;21.50;73.90;;;;;;5069726;28;20236;-71
2023/04/07 10:38:07;;;;;;;2.30;1.40;;;21.30;72.10;;;;;;5062415;28;20514;-67
2023/04/07 10:40:36;;;;;;;5.27;1.47;;;21.10;71.90;;;;;;5071680;28;20237;-67
2023/04/07 10:43:10;;;;;;;1.47;1.37;;;20.90;71.80;;;;;;5072146;28;20262;-67
2023/04/07 10:45:52;;;;;;;1.13;0.70;;;20.60;71.70;;;;;;5072035;28;20179;-67
2023/04/07 10:48:20;;;;;;;1.73;1.00;;;20.20;70.00;;;;;;5070458;28;20176;-68
2023/04/07 10:51:14;;;;;;;3.87;0.90;;;19.90;69.90;;;;;;5072202;28;20244;-69
2023/04/07 10:54:21;;;;;;;3.50;1.60;;;19.50;74.30;;;;;;5065471;28;20198;-68
2023/04/07 10:57:04;;;;;;;8.70;2.07;;;18.50;81.30;;;;;;5069698;28;20194;-68
2023/04/07 10:59:32;;;;;;;4.77;1.37;;;18.00;85.00;;;;;;5063759;28;20221;-67
2023/04/07 11:02:15;;;;;;;1.80;1.20;;;17.90;86.60;;;;;;5070027;28;20271;-67
2023/04/07 11:04:44;;;;;;;3.93;1.40;;;17.80;87.50;;;;;;5071932;28;20183;-66
2023/04/07 11:07:18;;;;;;;2.97;1.40;;;17.60;87.50;;;;;;5070234;28;20183;-68
2023/04/07 11:09:46;;;;;;;5.47;1.73;;;17.40;88.00;;;;;;5071514;28;20251;-68
2023/04/07 11:12:25;;;;;;;6.07;1.40;;;17.40;89.10;;;;;;5074557;28;20171;-67
2023/04/07 11:14:53;;;;;;;3.70;1.50;;;17.30;88.80;;;;;;5070780;28;20191;-67
2023/04/07 11:17:20;;;;;;;5.50;1.90;;;17.30;89.00;;;;;;5072275;28;20203;-66
2023/04/07 11:19:54;;;;;;;4.37;2.30;;;17.30;89.70;;;;;;5071935;28;20210;-66
2023/04/07 11:22:22;;;;;;;4.07;2.83;;;17.40;90.00;;;;;;5075735;28;20189;-66
2023/04/07 11:24:49;;;;;;;10.27;3.33;;;17.40;89.80;;;;;;5071859;28;20191;-65
2023/04/07 11:27:16;;;;;;;8.63;3.60;;;17.40;89.80;;;;;;5065902;28;20179;-66
2023/04/07 11:29:44;;;;;;;9.17;3.60;;;17.40;89.70;;;;;;5075390;28;20593;-67
2023/04/07 11:32:12;;;;;;;10.73;3.67;;;17.40;89.50;;;;;;5073313;28;20638;-66
2023/04/07 11:34:40;;;;;;;6.50;4.40;;;17.40;89.70;;;;;;5075087;28;20195;-67
2023/04/07 11:37:26;;;;;;;8.10;4.13;;;17.50;89.90;;;;;;5075341;28;20186;-65
2023/04/07 11:39:59;;;;;;;6.13;3.10;;;17.50;90.00;;;;;;5075344;28;20219;-66
2023/04/07 11:42:38;;;;;;;5.27;3.30;;;17.40;89.80;;;;;;5074517;28;20183;-66
2023/04/07 11:45:16;;;;;;;6.63;2.87;;;17.40;89.90;;;;;;5075279;28;20619;-67
2023/04/07 11:47:43;;;;;;;5.50;3.07;;;17.40;89.90;;;;;;5073906;28;20629;-67
2023/04/07 11:50:11;;;;;;;11.17;2.83;;;17.30;90.00;;;;;;5064317;28;20202;-66
2023/04/07 11:52:46;;;;;;;3.30;2.40;;;17.20;89.90;;;;;;5073664;28;20190;-67
2023/04/07 11:55:22;;;;;;;3.73;2.17;;;17.20;90.00;;;;;;5072742;28;20235;-67
2023/04/07 11:57:53;;;;;;;4.60;2.03;;;17.10;89.70;;;;;;5069150;28;20185;-67
2023/04/07 12:00:20;;;;;;;3.60;1.80;;;17.10;89.90;;;;;;5073884;28;20309;-66
2023/04/07 12:02:48;;;;;;;2.27;1.70;;;17.10;89.90;;;;;;5074391;28;20272;-67
2023/04/07 12:05:15;;;;;;;4.10;1.77;;;17.00;89.80;;;;;;5073946;28;20278;-66
2023/04/07 12:07:54;;;;;;;2.60;2.03;;;17.00;89.90;;;;;;5071968;28;20191;-66
2023/04/07 12:10:25;;;;;;;5.23;2.27;;;17.10;90.00;;;;;;5072164;28;20186;-66
2023/04/07 12:12:55;;;;;;;2.33;2.10;;;17.10;90.20;;;;;;5072841;28;20230;-68
2023/04/07 12:15:23;;;;;;;5.07;1.90;;;17.10;90.10;;;;;;5072074;28;20183;-67
2023/04/07 12:17:50;;;;;;;4.93;2.63;;;17.10;90.10;;;;;;5071545;28;20179;-69
2023/04/07 12:20:18;;;;;;;5.97;2.30;;;17.10;90.40;;;;;;5073043;28;20658;-70
2023/04/07 12:22:46;;;;;;;4.23;1.90;;;17.20;90.50;;;;;;5074690;28;20182;-70
2023/04/07 12:25:13;;;;;;;2.33;2.00;;;17.10;90.50;;;;;;5069479;28;20175;-68
2023/04/07 12:27:41;;;;;;;3.47;1.67;;;17.10;90.60;;;;;;5069414;28;20551;-68
2023/04/07 12:30:08;;;;;;;3.07;1.90;;;17.10;90.80;;;;;;5061411;28;20182;-69
2023/04/07 12:32:36;;;;;;;2.27;1.80;;;17.00;90.80;;;;;;5073439;28;20178;-70
2023/04/07 12:35:04;;;;;;;1.93;1.70;;;17.00;90.80;;;;;;5074401;28;20266;-67
2023/04/07 12:37:31;;;;;;;4.20;1.70;;;16.90;90.90;;;;;;5073476;28;20218;-69
2023/04/07 12:39:59;;;;;;;2.03;1.67;;;16.90;91.20;;;;;;5073779;28;20223;-68
2023/04/07 12:42:26;;;;;;;3.23;1.90;;;16.90;91.10;;;;;;5074276;28;20175;-69
2023/04/07 12:44:54;;;;;;;1.80;1.60;;;16.90;91.30;;;;;;5073461;28;20181;-69
2023/04/07 12:47:21;;;;;;;4.17;2.20;;;16.80;91.40;;;;;;5069779;28;20176;-67
2023/04/07 12:49:48;;;;;;;3.47;2.10;;;16.90;91.60;;;;;;5069685;28;20191;-68
2023/04/07 12:52:16;;;;;;;4.40;2.00;;;16.80;91.40;;;;;;5072159;28;20182;-67
2023/04/07 12:54:44;;;;;;;3.80;1.80;;;16.80;91.50;;;;;;5067251;28;20230;-68